Time;durP1;ratioP1;P1;durP2;ratioP2;P2;SDS_P1;SDS_P2;PMS_P1;PMS_P2;Temp;Humidity;BMP_temperature;BMP_pressure;BME280_temperature;BME280_humidity;BME280_pressure;Samples;Min_cycle;Max_cycle;Signal;HPM_P1;HPM_P2
2022/01/24 00:01:53;;;;;;;21.43;16.53;;;4.20;99.90;;;;;;5037639;28;20180;-85
2022/01/24 00:04:21;;;;;;;20.43;17.13;;;4.20;99.90;;;;;;5038939;28;20655;-89
2022/01/24 00:06:47;;;;;;;22.50;16.33;;;4.20;99.90;;;;;;5019823;28;20176;-86
2022/01/24 00:09:13;;;;;;;21.97;16.77;;;4.20;99.90;;;;;;5037663;28;20651;-87
2022/01/24 00:27:12;;;;;;;23.50;16.03;;;4.20;99.90;;;;;;5037238;28;20171;-85
2022/01/24 00:29:40;;;;;;;19.97;15.67;;;4.10;99.90;;;;;;5019862;28;20271;-84
2022/01/24 00:32:06;;;;;;;17.97;15.00;;;4.00;99.90;;;;;;5044520;28;20175;-88
2022/01/24 00:34:32;;;;;;;19.37;15.47;;;4.00;99.90;;;;;;5031208;28;20179;-83
2022/01/24 00:36:58;;;;;;;21.57;16.83;;;4.00;99.90;;;;;;5038815;28;20208;-84
2022/01/24 00:39:24;;;;;;;20.60;15.87;;;3.90;99.90;;;;;;5052259;28;20188;-85
2022/01/24 00:44:45;;;;;;;21.43;15.33;;;3.90;99.90;;;;;;5033278;28;20184;-85
2022/01/24 00:47:21;;;;;;;21.37;16.67;;;3.80;99.90;;;;;;5017580;28;20161;-87
2022/01/24 00:53:10;;;;;;;19.07;15.07;;;3.80;99.90;;;;;;5017565;28;20161;-90
2022/01/24 00:55:16;;;;;;;18.03;14.80;;;3.90;99.90;;;;;;5027069;28;20163;-86
2022/01/24 00:57:42;;;;;;;17.40;14.17;;;3.90;99.90;;;;;;5025859;28;20208;-90
2022/01/24 01:00:09;;;;;;;19.77;15.17;;;3.90;99.90;;;;;;5017561;28;20238;-88
2022/01/24 01:02:35;;;;;;;17.90;14.97;;;3.90;99.90;;;;;;5016550;28;20669;-89
2022/01/24 01:18:44;;;;;;;18.20;14.07;;;3.70;99.90;;;;;;4956841;29;20551;-88
2022/01/24 01:21:11;;;;;;;17.90;14.77;;;3.70;99.90;;;;;;4992365;28;20189;-89
2022/01/24 01:23:40;;;;;;;17.03;14.50;;;3.70;99.90;;;;;;5016340;28;20224;-88
2022/01/24 01:26:12;;;;;;;18.00;14.30;;;3.70;99.90;;;;;;5020912;28;20240;-88
2022/01/24 01:28:41;;;;;;;16.30;13.37;;;3.70;99.90;;;;;;5035340;28;20224;-89
2022/01/24 01:31:14;;;;;;;18.70;14.40;;;3.80;99.90;;;;;;5017218;28;20216;-89
2022/01/24 01:37:06;;;;;;;20.13;14.03;;;3.70;99.90;;;;;;5049806;28;20159;-89
2022/01/24 01:55:40;;;;;;;16.00;12.97;;;3.70;99.90;;;;;;5035297;28;20195;-90
2022/01/24 01:58:07;;;;;;;15.20;12.93;;;3.60;99.90;;;;;;5036182;28;20502;-90
2022/01/24 02:00:35;;;;;;;16.07;13.37;;;3.60;99.90;;;;;;5047710;28;20529;-83
2022/01/24 02:03:01;;;;;;;17.33;12.73;;;3.70;99.90;;;;;;5058474;28;20184;-84
2022/01/24 02:05:27;;;;;;;14.67;13.13;;;3.70;99.90;;;;;;5040561;28;20187;-90
2022/01/24 02:07:53;;;;;;;16.53;13.17;;;3.70;99.90;;;;;;5040310;28;20173;-89
2022/01/24 02:10:20;;;;;;;18.97;13.23;;;3.80;99.90;;;;;;5040604;28;20237;-89
2022/01/24 02:12:48;;;;;;;16.07;12.93;;;3.70;99.90;;;;;;5055412;28;20179;-88
2022/01/24 02:15:20;;;;;;;15.73;12.67;;;3.70;99.90;;;;;;5054549;28;20691;-89
2022/01/24 02:23:02;;;;;;;16.17;13.30;;;3.80;99.90;;;;;;5037242;28;20177;-82
2022/01/24 02:25:30;;;;;;;14.73;12.87;;;3.80;99.90;;;;;;5035736;28;20199;-82
2022/01/24 02:28:02;;;;;;;14.57;12.53;;;3.80;99.90;;;;;;5036147;28;20236;-84
2022/01/24 02:33:00;;;;;;;14.90;11.43;;;3.80;99.90;;;;;;5034601;28;20199;-84
2022/01/24 02:35:26;;;;;;;13.37;11.97;;;3.80;99.90;;;;;;5034094;28;20169;-84
2022/01/24 02:37:52;;;;;;;15.03;12.20;;;3.90;99.90;;;;;;5016289;28;20175;-84
2022/01/24 02:40:20;;;;;;;16.27;13.47;;;3.90;99.90;;;;;;5034130;28;20251;-86
2022/01/24 02:46:07;;;;;;;15.97;12.77;;;3.90;99.90;;;;;;5034283;28;20203;-89
2022/01/24 02:48:33;;;;;;;17.07;13.87;;;3.90;99.90;;;;;;5033799;28;20185;-88
2022/01/24 02:51:20;;;;;;;16.83;13.70;;;3.80;99.90;;;;;;5033838;28;20212;-88
2022/01/24 02:53:47;;;;;;;19.00;14.37;;;3.80;99.90;;;;;;5033808;28;20248;-89
2022/01/24 02:56:12;;;;;;;15.33;13.03;;;3.80;99.90;;;;;;5033910;28;20271;-89
2022/01/24 02:58:38;;;;;;;15.90;12.80;;;3.80;99.90;;;;;;5017093;28;20616;-88
2022/01/24 03:01:07;;;;;;;16.50;13.03;;;3.80;99.90;;;;;;5036733;28;20227;-87
2022/01/24 03:03:36;;;;;;;17.60;12.80;;;3.80;99.90;;;;;;5033706;28;20180;-88
2022/01/24 03:06:03;;;;;;;16.70;13.27;;;3.80;99.90;;;;;;5033781;28;20260;-87
2022/01/24 03:08:29;;;;;;;15.63;13.00;;;3.80;99.90;;;;;;5033766;28;20173;-87
2022/01/24 03:10:55;;;;;;;14.20;12.57;;;3.80;99.90;;;;;;5033681;28;20210;-86
2022/01/24 03:13:32;;;;;;;17.00;12.83;;;3.80;99.90;;;;;;5033791;28;20181;-87
2022/01/24 03:16:00;;;;;;;16.30;12.83;;;3.80;99.90;;;;;;5016122;28;20170;-89
2022/01/24 03:18:27;;;;;;;17.00;12.90;;;3.80;99.90;;;;;;5033895;28;20267;-88
2022/01/24 03:20:53;;;;;;;16.27;13.07;;;3.70;99.90;;;;;;5015541;28;20179;-89
2022/01/24 03:23:21;;;;;;;14.63;12.50;;;3.70;99.90;;;;;;5039269;28;20175;-88
2022/01/24 03:25:48;;;;;;;18.10;14.13;;;3.70;99.90;;;;;;5046764;28;20231;-89
2022/01/24 03:28:14;;;;;;;16.13;12.97;;;3.70;99.90;;;;;;5052427;28;20773;-86
2022/01/24 03:30:40;;;;;;;17.73;13.73;;;3.70;99.90;;;;;;5034290;28;20286;-88
2022/01/24 03:33:07;;;;;;;17.20;13.53;;;3.60;99.90;;;;;;5033409;28;20231;-88
2022/01/24 03:35:34;;;;;;;16.80;13.50;;;3.70;99.90;;;;;;5033171;28;20260;-89
2022/01/24 03:38:01;;;;;;;16.30;13.63;;;3.60;99.90;;;;;;5033685;28;20195;-89
2022/01/24 03:40:26;;;;;;;16.20;13.83;;;3.50;99.90;;;;;;5033089;28;20171;-89
2022/01/24 03:42:52;;;;;;;16.67;13.47;;;3.50;99.90;;;;;;5033231;28;20186;-84
2022/01/24 03:45:35;;;;;;;17.03;13.83;;;3.50;99.90;;;;;;5033375;28;20525;-88
2022/01/24 03:48:26;;;;;;;16.93;13.60;;;3.50;99.90;;;;;;5037868;28;20163;-87
2022/01/24 03:50:52;;;;;;;18.10;14.90;;;3.50;99.90;;;;;;5035977;28;20208;-87
2022/01/24 03:53:18;;;;;;;18.33;14.60;;;3.50;99.90;;;;;;5033231;28;20171;-88
2022/01/24 03:55:43;;;;;;;17.33;14.67;;;3.50;99.90;;;;;;5033225;28;20180;-87
2022/01/24 03:58:09;;;;;;;17.57;14.50;;;3.50;99.90;;;;;;5015428;28;20184;-86
2022/01/24 04:00:35;;;;;;;17.07;14.67;;;3.40;99.90;;;;;;5033117;28;20589;-84
2022/01/24 04:03:01;;;;;;;18.00;14.93;;;3.40;99.90;;;;;;5032837;28;20688;-84
2022/01/24 04:05:26;;;;;;;18.00;14.80;;;3.40;99.90;;;;;;5032998;28;20176;-85
2022/01/24 04:07:52;;;;;;;21.13;15.57;;;3.40;99.90;;;;;;5032790;28;20184;-85
2022/01/24 04:10:20;;;;;;;18.93;15.60;;;3.40;99.90;;;;;;5032658;28;20217;-83
2022/01/24 04:12:49;;;;;;;21.17;16.70;;;3.40;99.90;;;;;;5033025;28;20573;-83
2022/01/24 04:18:13;;;;;;;20.80;16.30;;;3.40;99.90;;;;;;5033185;28;20175;-83
2022/01/24 04:23:23;;;;;;;21.73;16.77;;;3.40;99.90;;;;;;5033093;28;20171;-83
2022/01/24 04:25:49;;;;;;;22.93;17.23;;;3.40;99.90;;;;;;5032955;28;20172;-86
2022/01/24 04:28:15;;;;;;;20.20;17.33;;;3.40;99.90;;;;;;5032780;28;20224;-88
2022/01/24 04:30:40;;;;;;;22.03;17.53;;;3.40;99.90;;;;;;5015076;28;20209;-90
2022/01/24 04:33:06;;;;;;;21.43;17.03;;;3.40;99.90;;;;;;5035204;28;20174;-88
2022/01/24 04:35:33;;;;;;;24.43;18.43;;;3.40;99.90;;;;;;5036568;28;20566;-86
2022/01/24 04:37:59;;;;;;;23.37;17.70;;;3.40;99.90;;;;;;5036377;28;20174;-89
2022/01/24 04:40:26;;;;;;;19.97;16.83;;;3.40;99.90;;;;;;5036405;28;20176;-88
2022/01/24 04:43:01;;;;;;;20.37;17.47;;;3.50;99.90;;;;;;5036422;28;20170;-87
2022/01/24 04:45:56;;;;;;;23.20;17.07;;;3.50;99.90;;;;;;5036546;28;20159;-87
2022/01/24 04:51:25;;;;;;;23.00;15.90;;;3.40;99.90;;;;;;5036176;28;20222;-91
2022/01/24 04:54:26;;;;;;;21.63;16.67;;;3.40;99.90;;;;;;5036408;28;20609;-89
2022/01/24 04:56:42;;;;;;;22.70;15.87;;;3.40;99.90;;;;;;5035788;28;20639;-89
2022/01/24 04:59:10;;;;;;;21.33;16.17;;;3.40;99.90;;;;;;5036171;28;20192;-89
2022/01/24 05:01:36;;;;;;;20.70;15.27;;;3.30;99.90;;;;;;5036446;28;20512;-87
2022/01/24 05:04:02;;;;;;;18.13;14.70;;;3.30;99.90;;;;;;5042366;28;20171;-87
2022/01/24 05:06:27;;;;;;;21.07;15.53;;;3.20;99.90;;;;;;5042336;28;20172;-89
2022/01/24 05:08:53;;;;;;;23.73;16.97;;;3.20;99.90;;;;;;5040906;28;20173;-85
2022/01/24 05:11:31;;;;;;;19.87;15.57;;;3.20;99.90;;;;;;5038297;28;20197;-87
2022/01/24 05:24:38;;;;;;;18.00;13.83;;;3.30;99.90;;;;;;5035776;28;20208;-86
2022/01/24 05:27:04;;;;;;;14.93;12.20;;;3.30;99.90;;;;;;5035401;28;20251;-84
2022/01/24 05:29:30;;;;;;;14.70;12.03;;;3.20;99.90;;;;;;5035335;28;20592;-87
2022/01/24 05:31:56;;;;;;;15.37;11.70;;;3.20;99.90;;;;;;5035396;28;20211;-86
2022/01/24 05:34:23;;;;;;;12.63;11.00;;;3.10;99.90;;;;;;5017593;28;20176;-86
2022/01/24 05:36:49;;;;;;;15.20;10.77;;;3.00;99.90;;;;;;5035509;28;20215;-84
2022/01/24 05:39:14;;;;;;;12.80;10.70;;;3.00;99.90;;;;;;5036772;28;20208;-88
2022/01/24 05:41:40;;;;;;;10.77;9.63;;;3.00;99.90;;;;;;5035353;28;20702;-85
2022/01/24 05:44:07;;;;;;;14.27;11.23;;;2.90;99.90;;;;;;5034943;28;20230;-87
2022/01/24 05:46:33;;;;;;;12.70;10.00;;;2.90;99.90;;;;;;5035344;28;20208;-86
2022/01/24 05:49:00;;;;;;;12.90;10.37;;;2.90;99.90;;;;;;5035530;28;20192;-88
2022/01/24 05:51:26;;;;;;;13.23;11.00;;;2.80;99.90;;;;;;5019219;28;20670;-88
2022/01/24 05:53:52;;;;;;;15.70;12.00;;;2.80;99.90;;;;;;5035033;28;20182;-88
2022/01/24 05:56:18;;;;;;;15.33;11.83;;;2.80;99.90;;;;;;5034972;28;20178;-89
2022/01/24 05:58:43;;;;;;;13.13;11.10;;;2.80;99.90;;;;;;5017521;28;20251;-88
2022/01/24 06:01:09;;;;;;;13.43;10.43;;;2.80;99.90;;;;;;5034985;28;20265;-86
2022/01/24 06:03:35;;;;;;;12.30;10.57;;;2.70;99.90;;;;;;5034687;28;20169;-85
2022/01/24 06:06:01;;;;;;;10.57;9.47;;;2.70;99.90;;;;;;5034768;28;20175;-84
2022/01/24 06:08:27;;;;;;;10.70;9.40;;;2.70;99.90;;;;;;5034694;28;20177;-85
2022/01/24 06:10:53;;;;;;;11.40;9.77;;;2.70;99.90;;;;;;5016807;28;20212;-84
2022/01/24 06:13:20;;;;;;;9.73;8.77;;;2.70;99.90;;;;;;5016730;28;20671;-87
2022/01/24 06:15:45;;;;;;;9.27;8.37;;;2.70;99.90;;;;;;5034838;28;20176;-88
2022/01/24 06:18:11;;;;;;;9.90;8.80;;;2.70;99.90;;;;;;5034665;28;20175;-89
2022/01/24 06:20:37;;;;;;;8.77;7.87;;;2.70;99.90;;;;;;5034863;28;20193;-85
2022/01/24 06:23:03;;;;;;;9.13;8.23;;;2.70;99.90;;;;;;5036972;28;20214;-87
2022/01/24 06:25:29;;;;;;;9.40;8.10;;;2.60;99.90;;;;;;5037823;28;20180;-85
2022/01/24 06:27:55;;;;;;;8.63;7.73;;;2.60;99.90;;;;;;5037756;28;20297;-89
2022/01/24 06:30:22;;;;;;;10.67;8.83;;;2.70;99.90;;;;;;5036437;28;20203;-85
2022/01/24 06:32:49;;;;;;;9.70;8.70;;;2.70;99.90;;;;;;5034556;28;20355;-89
2022/01/24 06:35:15;;;;;;;9.23;8.33;;;2.60;99.90;;;;;;5035118;28;20302;-88
2022/01/24 06:37:42;;;;;;;9.87;8.33;;;2.60;99.90;;;;;;5035447;28;20174;-89
2022/01/24 06:40:10;;;;;;;9.83;8.83;;;2.60;99.90;;;;;;5018047;28;20176;-88
2022/01/24 06:42:36;;;;;;;10.20;8.53;;;2.60;99.90;;;;;;5034485;28;20180;-89
2022/01/24 06:45:02;;;;;;;9.97;8.97;;;2.50;99.90;;;;;;5016851;28;20188;-88
2022/01/24 06:47:28;;;;;;;11.13;9.50;;;2.40;99.90;;;;;;5035346;28;20178;-88
2022/01/24 06:49:53;;;;;;;10.87;9.60;;;2.50;99.90;;;;;;5034070;28;20241;-88
2022/01/24 06:52:20;;;;;;;10.30;9.17;;;2.40;99.90;;;;;;5033847;28;20179;-86
2022/01/24 06:54:46;;;;;;;12.17;9.73;;;2.40;99.90;;;;;;5034274;28;20622;-88
2022/01/24 06:57:13;;;;;;;12.97;10.53;;;2.40;99.90;;;;;;5038078;28;20229;-85
2022/01/24 06:59:41;;;;;;;11.13;9.90;;;2.30;99.90;;;;;;5044070;28;20197;-89
2022/01/24 07:02:09;;;;;;;14.47;10.93;;;2.40;99.90;;;;;;5049009;28;20164;-87
2022/01/24 07:04:39;;;;;;;10.83;9.70;;;2.40;99.90;;;;;;5037146;28;20262;-85
2022/01/24 07:07:09;;;;;;;11.67;9.87;;;2.30;99.90;;;;;;5039091;28;20193;-89
2022/01/24 07:09:36;;;;;;;13.83;10.47;;;2.40;99.90;;;;;;5045009;28;20262;-85
2022/01/24 07:12:06;;;;;;;13.97;11.73;;;2.50;99.90;;;;;;5018415;28;20202;-85
2022/01/24 07:14:32;;;;;;;13.10;10.67;;;2.40;99.90;;;;;;5034246;28;20182;-85
2022/01/24 07:19:32;;;;;;;15.77;11.20;;;2.30;99.90;;;;;;5033868;28;20206;-85
2022/01/24 07:22:00;;;;;;;15.20;11.40;;;2.30;99.90;;;;;;5035044;28;20159;-83
2022/01/24 07:24:27;;;;;;;12.27;10.70;;;2.20;99.90;;;;;;5034114;28;20653;-86
2022/01/24 07:26:53;;;;;;;13.00;11.60;;;2.30;99.90;;;;;;5017154;28;20257;-84
2022/01/24 07:29:19;;;;;;;13.20;11.23;;;2.30;99.90;;;;;;5033880;28;20756;-86
2022/01/24 07:31:46;;;;;;;13.73;10.77;;;2.30;99.90;;;;;;5042939;28;20239;-87
2022/01/24 07:34:15;;;;;;;12.87;10.93;;;2.20;99.90;;;;;;5025409;28;20189;-84
2022/01/24 07:36:41;;;;;;;11.07;9.93;;;2.30;99.90;;;;;;5041484;28;20176;-84
2022/01/24 07:39:07;;;;;;;13.20;11.33;;;2.50;99.90;;;;;;5033562;28;20551;-87
2022/01/24 07:41:41;;;;;;;14.23;11.83;;;2.40;99.90;;;;;;5033519;28;20187;-87
2022/01/24 07:44:07;;;;;;;13.17;10.93;;;2.40;99.90;;;;;;5034170;28;20518;-90
2022/01/24 07:46:34;;;;;;;15.67;11.10;;;2.30;99.90;;;;;;5034140;28;20183;-87
2022/01/24 07:49:02;;;;;;;13.43;10.90;;;2.30;99.90;;;;;;5034565;28;20167;-84
2022/01/24 07:51:28;;;;;;;12.60;11.20;;;2.30;99.90;;;;;;5034149;28;20199;-84
2022/01/24 07:53:54;;;;;;;14.03;11.43;;;2.20;99.90;;;;;;5035689;28;20214;-86
2022/01/24 07:56:23;;;;;;;13.03;11.63;;;2.20;99.90;;;;;;5015405;28;20241;-86
2022/01/24 07:58:49;;;;;;;11.33;10.13;;;2.30;99.90;;;;;;5016448;28;20184;-86
2022/01/24 08:01:15;;;;;;;12.87;10.60;;;2.30;99.90;;;;;;5033938;28;20182;-86
2022/01/24 08:03:42;;;;;;;14.83;10.70;;;2.30;99.90;;;;;;5037559;28;20183;-87
2022/01/24 08:06:08;;;;;;;14.13;11.23;;;2.20;99.90;;;;;;5025868;28;20183;-86
2022/01/24 08:08:34;;;;;;;14.67;10.57;;;2.20;99.90;;;;;;5040090;28;20258;-86
2022/01/24 08:11:00;;;;;;;13.87;10.83;;;2.10;99.90;;;;;;5037346;28;20267;-86
2022/01/24 08:13:26;;;;;;;12.13;10.03;;;1.90;99.90;;;;;;5037715;28;20206;-87
2022/01/24 08:15:52;;;;;;;12.60;9.03;;;2.00;99.90;;;;;;5037314;28;20171;-87
2022/01/24 08:18:18;;;;;;;11.30;9.97;;;2.10;99.90;;;;;;5037497;28;20640;-85
2022/01/24 08:20:43;;;;;;;12.80;8.97;;;2.10;99.90;;;;;;5037542;28;20689;-87
2022/01/24 08:23:11;;;;;;;10.97;8.67;;;2.10;99.90;;;;;;5037620;28;20178;-88
2022/01/24 08:25:37;;;;;;;9.80;8.60;;;2.10;99.90;;;;;;5037187;28;20207;-85
2022/01/24 08:28:04;;;;;;;11.70;9.60;;;2.00;99.90;;;;;;5037069;28;20241;-87
2022/01/24 08:30:30;;;;;;;15.13;9.00;;;2.00;99.90;;;;;;5039550;28;20329;-85
2022/01/24 08:32:55;;;;;;;11.13;9.00;;;2.00;99.90;;;;;;5019545;28;20266;-87
2022/01/24 08:35:22;;;;;;;10.50;8.90;;;2.10;99.90;;;;;;5037247;28;20175;-87
2022/01/24 08:37:48;;;;;;;12.57;9.03;;;2.10;99.90;;;;;;5036946;28;20165;-92
2022/01/24 08:40:24;;;;;;;9.07;8.13;;;2.10;99.90;;;;;;5019209;28;20392;-88
2022/01/24 08:48:06;;;;;;;11.50;8.80;;;2.00;99.90;;;;;;5040545;28;20278;-87
2022/01/24 08:50:32;;;;;;;10.63;8.57;;;2.00;99.90;;;;;;5023686;28;20227;-89
2022/01/24 08:53:00;;;;;;;10.70;8.90;;;1.90;99.90;;;;;;5043832;28;20180;-89
2022/01/24 08:55:36;;;;;;;11.23;8.20;;;2.00;99.90;;;;;;5050834;28;20160;-86
2022/01/24 08:58:04;;;;;;;9.23;8.33;;;2.00;99.90;;;;;;5049357;28;20175;-90
2022/01/24 09:00:30;;;;;;;9.93;8.50;;;2.10;99.90;;;;;;5040189;28;20211;-86
2022/01/24 09:02:56;;;;;;;11.37;8.97;;;2.20;99.90;;;;;;5045113;28;20301;-87
2022/01/24 09:05:23;;;;;;;10.87;8.87;;;2.10;99.90;;;;;;5044048;28;20639;-89
2022/01/24 09:07:51;;;;;;;13.97;9.10;;;2.10;99.90;;;;;;5037327;28;20517;-89
2022/01/24 09:10:18;;;;;;;10.50;9.03;;;2.10;99.90;;;;;;5036957;28;20309;-87
2022/01/24 09:12:44;;;;;;;10.20;8.60;;;2.20;99.90;;;;;;5036152;28;20539;-86
2022/01/24 09:15:10;;;;;;;11.30;8.87;;;2.20;99.90;;;;;;5019032;28;20178;-89
2022/01/24 09:17:37;;;;;;;10.90;8.90;;;2.30;99.90;;;;;;5034941;28;20178;-85
2022/01/24 09:20:04;;;;;;;12.00;9.87;;;2.30;99.90;;;;;;5034973;28;20229;-84
2022/01/24 09:22:33;;;;;;;12.90;9.20;;;2.30;99.90;;;;;;5036041;28;20180;-88
2022/01/24 09:24:59;;;;;;;11.40;9.30;;;2.40;99.90;;;;;;5036152;28;20169;-87
2022/01/24 09:27:28;;;;;;;12.73;9.20;;;2.70;99.90;;;;;;5017644;28;20290;-86
2022/01/24 09:29:54;;;;;;;12.00;10.00;;;2.70;99.90;;;;;;5035944;28;20164;-86
2022/01/24 09:32:21;;;;;;;13.30;8.97;;;2.70;99.90;;;;;;5035766;28;20241;-84
2022/01/24 09:34:47;;;;;;;10.00;8.70;;;2.60;99.90;;;;;;5035651;28;20238;-84
2022/01/24 09:37:13;;;;;;;11.67;9.70;;;2.70;99.90;;;;;;5035517;28;20620;-86
2022/01/24 09:39:39;;;;;;;14.60;9.60;;;2.60;99.90;;;;;;5035387;28;20168;-87
2022/01/24 09:42:06;;;;;;;11.87;9.10;;;2.60;99.90;;;;;;5017616;28;20180;-84
2022/01/24 09:44:33;;;;;;;10.77;9.07;;;2.70;99.90;;;;;;5035319;28;20665;-87
2022/01/24 09:46:59;;;;;;;13.13;10.13;;;2.70;99.90;;;;;;5035355;28;20169;-88
2022/01/24 09:49:25;;;;;;;11.77;9.00;;;2.60;99.90;;;;;;5035248;28;20223;-85
2022/01/24 09:51:51;;;;;;;16.70;10.10;;;2.60;99.90;;;;;;5017183;28;20575;-89
2022/01/24 09:54:17;;;;;;;10.27;8.97;;;2.60;99.90;;;;;;5035257;28;20168;-88
2022/01/24 09:56:43;;;;;;;15.23;9.63;;;2.60;99.90;;;;;;5018457;28;20176;-88
2022/01/24 09:59:09;;;;;;;10.60;8.90;;;2.60;99.90;;;;;;5036532;28;20171;-89
2022/01/24 10:01:35;;;;;;;11.33;9.40;;;2.60;99.90;;;;;;5037145;28;20211;-87
2022/01/24 10:04:16;;;;;;;11.10;9.53;;;2.60;99.90;;;;;;5052594;28;20179;-87
2022/01/24 10:07:02;;;;;;;11.13;9.53;;;2.60;99.90;;;;;;5037354;28;20156;-88
2022/01/24 10:09:31;;;;;;;13.03;10.03;;;2.60;99.90;;;;;;5037089;28;20711;-89
2022/01/24 10:12:06;;;;;;;13.97;9.40;;;2.60;99.90;;;;;;5037385;28;20225;-90
2022/01/24 10:17:29;;;;;;;12.37;10.40;;;2.60;99.90;;;;;;5036513;28;20252;-90
2022/01/24 10:19:55;;;;;;;13.03;9.07;;;2.60;99.90;;;;;;5036148;28;20176;-89
2022/01/24 10:22:23;;;;;;;10.50;9.40;;;2.50;99.90;;;;;;5035839;28;20251;-90
2022/01/24 10:24:54;;;;;;;14.50;10.73;;;2.50;99.90;;;;;;5035349;28;20176;-89
2022/01/24 10:27:27;;;;;;;12.03;9.83;;;2.50;99.90;;;;;;5018453;28;20268;-90
2022/01/24 10:30:10;;;;;;;11.83;10.10;;;2.50;99.90;;;;;;5035674;28;20547;-89
2022/01/24 10:32:41;;;;;;;11.33;9.97;;;2.50;99.90;;;;;;5035121;28;20247;-90
2022/01/24 10:35:35;;;;;;;10.07;8.73;;;2.50;99.90;;;;;;5035230;28;20539;-90
2022/01/24 10:39:05;;;;;;;8.97;8.07;;;2.50;99.90;;;;;;5018039;28;20175;-89
2022/01/24 10:41:18;;;;;;;9.83;8.83;;;2.60;99.90;;;;;;5032854;28;20181;-86
2022/01/24 10:43:45;;;;;;;10.23;9.13;;;2.50;99.90;;;;;;5049133;28;20255;-85
2022/01/24 10:46:11;;;;;;;9.90;8.90;;;2.50;99.90;;;;;;5026134;28;20187;-86
2022/01/24 10:48:44;;;;;;;9.60;8.60;;;2.50;99.90;;;;;;5036161;28;20172;-85
2022/01/24 10:51:21;;;;;;;11.10;9.40;;;2.60;99.90;;;;;;5035632;28;20678;-86
2022/01/24 10:54:00;;;;;;;9.67;8.67;;;2.60;99.90;;;;;;5034508;28;20174;-89
2022/01/24 10:56:36;;;;;;;9.80;8.80;;;2.60;99.90;;;;;;5034181;28;20164;-90
2022/01/24 10:59:18;;;;;;;11.40;9.70;;;2.60;99.90;;;;;;5016432;28;20176;-85
2022/01/24 11:01:50;;;;;;;12.53;9.63;;;2.60;99.90;;;;;;5034268;28;20632;-84
2022/01/24 11:04:18;;;;;;;11.80;10.30;;;2.70;99.90;;;;;;5034392;28;20175;-87
2022/01/24 11:06:51;;;;;;;12.43;10.37;;;2.60;99.90;;;;;;5033848;28;20165;-84
2022/01/24 11:09:23;;;;;;;13.30;10.30;;;2.50;99.90;;;;;;5034417;28;20168;-84
2022/01/24 11:11:55;;;;;;;13.93;11.83;;;2.50;99.90;;;;;;5036741;28;20210;-85
2022/01/24 11:14:23;;;;;;;14.60;11.00;;;2.60;99.90;;;;;;5035465;28;20172;-84
2022/01/24 11:16:50;;;;;;;13.67;11.57;;;2.70;99.90;;;;;;5033624;28;20180;-84
2022/01/24 11:19:26;;;;;;;13.10;11.73;;;2.60;99.90;;;;;;5033497;28;20168;-84
2022/01/24 11:21:53;;;;;;;15.43;11.70;;;2.60;99.90;;;;;;5033554;28;20251;-87
2022/01/24 11:24:26;;;;;;;14.27;11.77;;;2.60;99.90;;;;;;5033658;28;20287;-88
2022/01/24 11:26:52;;;;;;;14.87;12.57;;;2.60;99.90;;;;;;5040691;28;20156;-87
2022/01/24 11:29:19;;;;;;;13.93;12.07;;;2.60;99.90;;;;;;5040293;28;20309;-90
2022/01/24 11:32:10;;;;;;;12.73;11.40;;;2.70;99.90;;;;;;5033900;28;20208;-89
2022/01/24 11:34:39;;;;;;;13.40;10.93;;;2.70;99.90;;;;;;5033902;28;20168;-86
2022/01/24 11:37:06;;;;;;;13.20;11.40;;;2.70;99.90;;;;;;5033939;28;20183;-86
2022/01/24 11:39:34;;;;;;;14.57;11.27;;;2.60;99.90;;;;;;5039396;28;20573;-89
2022/01/24 11:42:02;;;;;;;12.27;10.90;;;2.60;99.90;;;;;;5043576;28;20240;-88
2022/01/24 11:44:49;;;;;;;12.47;11.13;;;2.70;99.90;;;;;;5037913;28;20225;-89
2022/01/24 11:47:23;;;;;;;12.93;10.77;;;2.70;99.90;;;;;;5033930;28;20168;-88
2022/01/24 11:49:54;;;;;;;13.53;10.90;;;2.70;99.90;;;;;;5034443;28;20172;-88
2022/01/24 11:52:31;;;;;;;12.73;10.87;;;2.70;99.90;;;;;;5052217;28;20182;-84
2022/01/24 11:55:15;;;;;;;11.17;9.80;;;2.70;99.90;;;;;;5052279;28;20183;-85
2022/01/24 11:57:47;;;;;;;14.47;10.87;;;2.70;99.90;;;;;;5044563;28;20229;-88
2022/01/24 12:00:29;;;;;;;12.07;10.50;;;2.70;99.90;;;;;;5037015;28;20175;-90
2022/01/24 12:02:58;;;;;;;10.50;9.37;;;2.80;99.90;;;;;;5036340;28;20314;-89
2022/01/24 12:05:45;;;;;;;11.47;9.17;;;2.80;99.90;;;;;;5034116;28;20217;-87
2022/01/24 12:08:29;;;;;;;9.67;8.67;;;2.80;99.90;;;;;;5033641;28;20164;-88
2022/01/24 12:10:58;;;;;;;9.97;8.77;;;2.60;99.90;;;;;;5033722;28;20240;-90
2022/01/24 12:13:36;;;;;;;9.57;8.57;;;2.70;99.90;;;;;;5033749;28;20168;-87
2022/01/24 12:16:08;;;;;;;10.13;9.03;;;2.60;99.90;;;;;;5034510;28;20171;-86
2022/01/24 12:18:34;;;;;;;10.07;8.73;;;2.60;99.90;;;;;;5034836;28;20180;-88
2022/01/24 12:21:05;;;;;;;9.77;8.20;;;2.60;99.90;;;;;;5034505;28;20254;-89
2022/01/24 12:23:35;;;;;;;10.87;8.70;;;2.70;99.90;;;;;;5034114;28;20200;-87
2022/01/24 12:26:07;;;;;;;10.07;8.80;;;2.70;99.90;;;;;;5033415;28;20188;-86
2022/01/24 12:28:41;;;;;;;8.50;7.60;;;2.80;99.90;;;;;;5040251;28;20242;-89
2022/01/24 12:31:34;;;;;;;7.87;7.17;;;2.80;99.90;;;;;;5049594;28;20203;-84
2022/01/24 12:34:08;;;;;;;8.50;7.63;;;2.80;99.90;;;;;;5041368;28;20254;-85
2022/01/24 12:36:37;;;;;;;8.73;7.63;;;2.80;99.90;;;;;;5034684;28;20159;-85
2022/01/24 12:39:23;;;;;;;8.80;7.30;;;2.80;99.90;;;;;;5034003;28;20278;-85
2022/01/24 12:42:00;;;;;;;8.53;7.33;;;2.80;99.90;;;;;;5033497;28;20555;-89
2022/01/24 12:47:07;;;;;;;8.63;7.57;;;2.80;99.90;;;;;;5038168;28;20175;-88
2022/01/24 12:49:33;;;;;;;8.47;7.57;;;2.80;99.90;;;;;;5033605;28;20168;-87
2022/01/24 12:52:02;;;;;;;9.30;8.40;;;2.80;99.90;;;;;;5033123;28;20569;-85
2022/01/24 12:54:29;;;;;;;8.83;8.00;;;2.80;99.90;;;;;;5037031;28;20267;-85
2022/01/24 12:57:00;;;;;;;8.57;7.70;;;2.80;99.90;;;;;;5036825;28;20209;-85
2022/01/24 12:59:26;;;;;;;8.70;7.80;;;2.90;99.90;;;;;;5018888;28;20176;-85
2022/01/24 13:01:55;;;;;;;9.83;8.53;;;2.90;99.90;;;;;;5036839;28;20175;-84
2022/01/24 13:04:34;;;;;;;9.73;8.57;;;2.80;99.90;;;;;;5019213;28;20278;-84
2022/01/24 13:07:01;;;;;;;10.00;8.80;;;2.70;99.90;;;;;;5036960;28;20164;-86
2022/01/24 13:09:27;;;;;;;13.20;9.00;;;2.80;99.90;;;;;;5036808;28;20216;-86
2022/01/24 13:11:54;;;;;;;10.20;9.10;;;2.80;99.90;;;;;;5036206;28;20206;-85
2022/01/24 13:14:35;;;;;;;14.73;8.90;;;2.70;99.90;;;;;;5037360;28;20172;-87
2022/01/24 13:23:07;;;;;;;14.03;10.57;;;2.80;99.90;;;;;;5037487;28;20210;-88
2022/01/24 13:25:38;;;;;;;11.67;10.07;;;2.80;99.90;;;;;;5036129;28;20652;-86
2022/01/24 13:28:05;;;;;;;11.63;9.90;;;2.80;99.90;;;;;;5038944;28;20702;-88
2022/01/24 13:30:40;;;;;;;54.50;18.43;;;2.80;99.90;;;;;;5037726;28;20203;-87
2022/01/24 13:33:20;;;;;;;45.57;15.87;;;2.80;99.90;;;;;;5018357;28;20167;-87
2022/01/24 13:35:48;;;;;;;35.03;15.97;;;2.90;99.90;;;;;;5036859;28;20180;-84
2022/01/24 13:38:25;;;;;;;150.17;41.23;;;2.90;99.90;;;;;;5037040;28;20172;-85
2022/01/24 13:40:58;;;;;;;68.57;30.43;;;2.90;99.90;;;;;;5035520;28;20610;-85
2022/01/24 13:43:54;;;;;;;65.77;27.00;;;2.90;99.90;;;;;;5035809;28;20171;-88
2022/01/24 13:46:24;;;;;;;43.17;19.60;;;3.10;99.90;;;;;;5036607;28;20152;-85
2022/01/24 13:49:15;;;;;;;33.07;16.40;;;3.10;99.90;;;;;;5036588;28;20531;-85
2022/01/24 13:51:46;;;;;;;26.73;14.37;;;3.10;99.90;;;;;;5036118;28;20196;-85
2022/01/24 13:54:19;;;;;;;24.97;16.17;;;3.10;99.90;;;;;;5036702;28;20243;-87
2022/01/24 13:56:46;;;;;;;18.43;13.20;;;3.10;99.90;;;;;;5036526;28;20195;-89
2022/01/24 13:59:20;;;;;;;26.40;15.23;;;3.10;99.90;;;;;;5038069;28;20654;-86
2022/01/24 14:02:02;;;;;;;17.23;13.73;;;3.10;99.90;;;;;;5037144;28;20176;-89
2022/01/24 14:04:49;;;;;;;20.50;13.00;;;3.00;99.90;;;;;;5017937;28;20251;-88
2022/01/24 14:07:41;;;;;;;19.37;12.63;;;3.10;99.90;;;;;;5036355;28;20258;-88
2022/01/24 14:10:13;;;;;;;15.47;11.40;;;3.00;99.90;;;;;;5035712;28;20643;-89
2022/01/24 14:12:47;;;;;;;14.27;11.40;;;3.10;99.90;;;;;;5019384;28;20179;-89
2022/01/24 14:18:30;;;;;;;13.77;10.67;;;3.10;99.90;;;;;;4973743;29;20197;-86
2022/01/24 14:21:08;;;;;;;11.77;9.90;;;3.10;99.90;;;;;;4962304;29;20210;-87
2022/01/24 14:23:39;;;;;;;12.40;9.37;;;3.20;99.90;;;;;;4939495;29;20190;-88
2022/01/24 14:26:24;;;;;;;10.70;8.53;;;3.10;99.90;;;;;;4954674;29;20194;-89
2022/01/24 14:29:13;;;;;;;9.73;8.60;;;3.10;99.90;;;;;;4954686;29;20249;-88
2022/01/24 14:31:43;;;;;;;12.50;9.60;;;3.10;99.90;;;;;;4956558;29;20219;-88
2022/01/24 14:34:09;;;;;;;10.70;9.57;;;3.10;99.90;;;;;;4958529;29;20162;-89
2022/01/24 14:36:36;;;;;;;14.10;9.20;;;3.00;99.90;;;;;;4955076;29;20187;-89
2022/01/24 14:39:06;;;;;;;15.07;9.37;;;3.00;99.90;;;;;;4954620;29;20765;-89
2022/01/24 14:41:47;;;;;;;10.83;9.13;;;3.00;99.90;;;;;;4954782;29;20199;-84
2022/01/24 14:46:59;;;;;;;9.73;8.73;;;3.10;99.90;;;;;;4954538;29;20171;-89